sensor_id;sensor_type;location;lat;lon;timestamp;P1;durP1;ratioP1;P2;durP2;ratioP2
5841;SDS011;2947;52.276;9.946;2022-09-21T00:01:10;4.50;;;2.37;;
5841;SDS011;2947;52.276;9.946;2022-09-21T00:03:41;6.93;;;1.70;;
5841;SDS011;2947;52.276;9.946;2022-09-21T00:06:09;8.53;;;2.40;;
5841;SDS011;2947;52.276;9.946;2022-09-21T00:08:38;4.80;;;2.20;;
5841;SDS011;2947;52.276;9.946;2022-09-21T00:11:04;8.67;;;1.97;;
5841;SDS011;2947;52.276;9.946;2022-09-21T00:13:31;4.73;;;2.57;;
5841;SDS011;2947;52.276;9.946;2022-09-21T00:15:58;4.97;;;2.70;;
5841;SDS011;2947;52.276;9.946;2022-09-21T00:18:24;8.03;;;2.20;;
5841;SDS011;2947;52.276;9.946;2022-09-21T00:20:50;9.50;;;2.33;;
5841;SDS011;2947;52.276;9.946;2022-09-21T00:23:17;9.17;;;2.37;;
5841;SDS011;2947;52.276;9.946;2022-09-21T00:25:43;13.90;;;2.27;;
5841;SDS011;2947;52.276;9.946;2022-09-21T00:28:09;7.77;;;2.53;;
5841;SDS011;2947;52.276;9.946;2022-09-21T00:30:35;6.87;;;2.30;;
5841;SDS011;2947;52.276;9.946;2022-09-21T00:33:01;8.27;;;2.60;;
5841;SDS011;2947;52.276;9.946;2022-09-21T00:35:27;6.70;;;2.40;;
5841;SDS011;2947;52.276;9.946;2022-09-21T00:37:53;5.60;;;2.33;;
5841;SDS011;2947;52.276;9.946;2022-09-21T00:40:19;9.80;;;2.40;;
5841;SDS011;2947;52.276;9.946;2022-09-21T00:42:44;9.63;;;2.47;;
5841;SDS011;2947;52.276;9.946;2022-09-21T00:45:10;13.90;;;2.60;;
5841;SDS011;2947;52.276;9.946;2022-09-21T00:47:45;11.40;;;2.60;;
5841;SDS011;2947;52.276;9.946;2022-09-21T00:50:18;4.50;;;2.40;;
5841;SDS011;2947;52.276;9.946;2022-09-21T00:52:48;7.17;;;2.50;;
5841;SDS011;2947;52.276;9.946;2022-09-21T00:55:28;8.63;;;2.80;;
5841;SDS011;2947;52.276;9.946;2022-09-21T00:58:16;5.87;;;2.43;;
5841;SDS011;2947;52.276;9.946;2022-09-21T01:00:48;7.60;;;2.60;;
5841;SDS011;2947;52.276;9.946;2022-09-21T01:03:13;13.03;;;3.23;;
5841;SDS011;2947;52.276;9.946;2022-09-21T01:05:39;9.07;;;3.20;;
5841;SDS011;2947;52.276;9.946;2022-09-21T01:08:05;6.50;;;2.97;;
5841;SDS011;2947;52.276;9.946;2022-09-21T01:10:52;9.80;;;2.83;;
5841;SDS011;2947;52.276;9.946;2022-09-21T01:16:18;6.97;;;3.10;;
5841;SDS011;2947;52.276;9.946;2022-09-21T01:25:52;8.13;;;3.20;;
5841;SDS011;2947;52.276;9.946;2022-09-21T01:31:52;10.30;;;3.27;;
5841;SDS011;2947;52.276;9.946;2022-09-21T01:37:30;5.80;;;3.53;;
5841;SDS011;2947;52.276;9.946;2022-09-21T01:40:04;9.73;;;3.27;;
5841;SDS011;2947;52.276;9.946;2022-09-21T01:42:45;9.97;;;4.40;;
5841;SDS011;2947;52.276;9.946;2022-09-21T01:45:14;8.00;;;3.60;;
5841;SDS011;2947;52.276;9.946;2022-09-21T01:47:45;17.70;;;3.70;;
5841;SDS011;2947;52.276;9.946;2022-09-21T01:50:13;4.30;;;3.07;;
5841;SDS011;2947;52.276;9.946;2022-09-21T01:52:44;12.13;;;4.40;;
5841;SDS011;2947;52.276;9.946;2022-09-21T01:57:50;10.00;;;3.80;;
5841;SDS011;2947;52.276;9.946;2022-09-21T02:00:29;7.17;;;3.43;;
5841;SDS011;2947;52.276;9.946;2022-09-21T02:03:03;6.17;;;3.47;;
5841;SDS011;2947;52.276;9.946;2022-09-21T02:05:36;7.83;;;4.27;;
5841;SDS011;2947;52.276;9.946;2022-09-21T02:08:04;7.03;;;3.80;;
5841;SDS011;2947;52.276;9.946;2022-09-21T02:10:33;6.30;;;3.30;;
5841;SDS011;2947;52.276;9.946;2022-09-21T02:13:04;9.60;;;3.80;;
5841;SDS011;2947;52.276;9.946;2022-09-21T02:15:42;13.47;;;3.90;;
5841;SDS011;2947;52.276;9.946;2022-09-21T02:21:26;8.17;;;4.13;;
5841;SDS011;2947;52.276;9.946;2022-09-21T02:24:24;7.43;;;4.40;;
5841;SDS011;2947;52.276;9.946;2022-09-21T02:27:05;9.60;;;3.80;;
5841;SDS011;2947;52.276;9.946;2022-09-21T02:29:46;9.00;;;4.40;;
5841;SDS011;2947;52.276;9.946;2022-09-21T02:35:37;9.90;;;4.77;;
5841;SDS011;2947;52.276;9.946;2022-09-21T02:38:16;8.30;;;4.60;;
5841;SDS011;2947;52.276;9.946;2022-09-21T02:40:52;10.23;;;4.00;;
5841;SDS011;2947;52.276;9.946;2022-09-21T02:44:03;8.00;;;3.73;;
5841;SDS011;2947;52.276;9.946;2022-09-21T02:46:40;10.03;;;4.10;;
5841;SDS011;2947;52.276;9.946;2022-09-21T02:49:27;7.70;;;3.87;;
5841;SDS011;2947;52.276;9.946;2022-09-21T02:51:59;12.70;;;4.57;;
5841;SDS011;2947;52.276;9.946;2022-09-21T02:54:29;5.07;;;3.70;;
5841;SDS011;2947;52.276;9.946;2022-09-21T02:56:58;14.10;;;4.50;;
5841;SDS011;2947;52.276;9.946;2022-09-21T02:59:26;12.40;;;6.63;;
5841;SDS011;2947;52.276;9.946;2022-09-21T03:01:52;11.23;;;4.60;;
5841;SDS011;2947;52.276;9.946;2022-09-21T03:04:20;8.73;;;4.50;;
5841;SDS011;2947;52.276;9.946;2022-09-21T03:06:47;9.50;;;4.67;;
5841;SDS011;2947;52.276;9.946;2022-09-21T03:09:12;11.97;;;4.50;;
5841;SDS011;2947;52.276;9.946;2022-09-21T03:11:38;9.07;;;4.00;;
5841;SDS011;2947;52.276;9.946;2022-09-21T03:14:06;8.50;;;3.73;;
5841;SDS011;2947;52.276;9.946;2022-09-21T03:16:36;8.37;;;4.07;;
5841;SDS011;2947;52.276;9.946;2022-09-21T03:19:03;6.97;;;4.00;;
5841;SDS011;2947;52.276;9.946;2022-09-21T03:21:29;10.10;;;4.30;;
5841;SDS011;2947;52.276;9.946;2022-09-21T03:23:55;16.83;;;5.30;;
5841;SDS011;2947;52.276;9.946;2022-09-21T03:26:21;11.17;;;4.73;;
5841;SDS011;2947;52.276;9.946;2022-09-21T03:28:50;10.37;;;5.20;;
5841;SDS011;2947;52.276;9.946;2022-09-21T03:31:17;8.70;;;5.27;;
5841;SDS011;2947;52.276;9.946;2022-09-21T03:33:43;9.33;;;5.57;;
5841;SDS011;2947;52.276;9.946;2022-09-21T03:36:08;10.10;;;5.73;;
5841;SDS011;2947;52.276;9.946;2022-09-21T03:38:35;10.80;;;5.50;;
5841;SDS011;2947;52.276;9.946;2022-09-21T03:41:02;11.20;;;6.47;;
5841;SDS011;2947;52.276;9.946;2022-09-21T03:43:28;10.63;;;5.40;;
5841;SDS011;2947;52.276;9.946;2022-09-21T03:45:54;10.77;;;5.17;;
5841;SDS011;2947;52.276;9.946;2022-09-21T03:48:20;10.70;;;5.60;;
5841;SDS011;2947;52.276;9.946;2022-09-21T03:50:46;10.10;;;4.83;;
5841;SDS011;2947;52.276;9.946;2022-09-21T03:53:12;14.10;;;5.40;;
5841;SDS011;2947;52.276;9.946;2022-09-21T03:55:38;9.50;;;5.07;;
5841;SDS011;2947;52.276;9.946;2022-09-21T03:58:05;11.33;;;5.60;;
5841;SDS011;2947;52.276;9.946;2022-09-21T04:00:31;11.07;;;5.90;;
5841;SDS011;2947;52.276;9.946;2022-09-21T04:02:57;11.73;;;4.97;;
5841;SDS011;2947;52.276;9.946;2022-09-21T04:05:23;10.27;;;4.83;;
5841;SDS011;2947;52.276;9.946;2022-09-21T04:07:49;14.40;;;5.53;;
5841;SDS011;2947;52.276;9.946;2022-09-21T04:10:16;14.97;;;5.30;;
5841;SDS011;2947;52.276;9.946;2022-09-21T04:12:44;12.43;;;5.90;;
5841;SDS011;2947;52.276;9.946;2022-09-21T04:15:15;10.40;;;5.20;;
5841;SDS011;2947;52.276;9.946;2022-09-21T04:17:46;18.37;;;6.00;;
5841;SDS011;2947;52.276;9.946;2022-09-21T04:20:16;11.73;;;5.57;;
5841;SDS011;2947;52.276;9.946;2022-09-21T04:22:42;9.60;;;5.03;;
5841;SDS011;2947;52.276;9.946;2022-09-21T04:25:09;11.50;;;4.97;;
5841;SDS011;2947;52.276;9.946;2022-09-21T04:27:36;11.17;;;5.97;;
5841;SDS011;2947;52.276;9.946;2022-09-21T04:30:02;15.27;;;5.77;;
5841;SDS011;2947;52.276;9.946;2022-09-21T04:32:28;9.00;;;5.63;;
5841;SDS011;2947;52.276;9.946;2022-09-21T04:34:54;14.20;;;5.30;;
5841;SDS011;2947;52.276;9.946;2022-09-21T04:37:19;10.20;;;5.33;;
5841;SDS011;2947;52.276;9.946;2022-09-21T04:39:45;10.67;;;4.80;;
5841;SDS011;2947;52.276;9.946;2022-09-21T04:42:11;11.93;;;5.43;;
5841;SDS011;2947;52.276;9.946;2022-09-21T04:44:37;9.10;;;5.93;;
5841;SDS011;2947;52.276;9.946;2022-09-21T04:47:02;7.77;;;5.13;;
5841;SDS011;2947;52.276;9.946;2022-09-21T04:49:28;7.80;;;4.60;;
5841;SDS011;2947;52.276;9.946;2022-09-21T04:51:54;12.57;;;5.70;;
5841;SDS011;2947;52.276;9.946;2022-09-21T04:54:20;10.43;;;5.77;;
5841;SDS011;2947;52.276;9.946;2022-09-21T04:56:45;11.90;;;5.20;;
5841;SDS011;2947;52.276;9.946;2022-09-21T04:59:12;9.87;;;5.40;;
5841;SDS011;2947;52.276;9.946;2022-09-21T05:01:37;7.60;;;4.80;;
5841;SDS011;2947;52.276;9.946;2022-09-21T05:04:03;14.97;;;5.87;;
5841;SDS011;2947;52.276;9.946;2022-09-21T05:06:30;11.30;;;5.40;;
5841;SDS011;2947;52.276;9.946;2022-09-21T05:08:57;11.67;;;6.30;;
5841;SDS011;2947;52.276;9.946;2022-09-21T05:11:42;9.80;;;5.57;;
5841;SDS011;2947;52.276;9.946;2022-09-21T05:14:08;15.17;;;7.20;;
5841;SDS011;2947;52.276;9.946;2022-09-21T05:16:34;11.37;;;6.53;;
5841;SDS011;2947;52.276;9.946;2022-09-21T05:19:00;10.83;;;6.40;;
5841;SDS011;2947;52.276;9.946;2022-09-21T05:21:26;13.73;;;7.07;;
5841;SDS011;2947;52.276;9.946;2022-09-21T05:23:52;10.37;;;6.23;;
5841;SDS011;2947;52.276;9.946;2022-09-21T05:26:18;10.57;;;6.93;;
5841;SDS011;2947;52.276;9.946;2022-09-21T05:28:44;17.07;;;6.27;;
5841;SDS011;2947;52.276;9.946;2022-09-21T05:34:26;13.43;;;7.30;;
5841;SDS011;2947;52.276;9.946;2022-09-21T05:40:12;9.03;;;5.73;;
5841;SDS011;2947;52.276;9.946;2022-09-21T05:42:39;15.90;;;6.30;;
5841;SDS011;2947;52.276;9.946;2022-09-21T05:45:05;12.30;;;6.10;;
5841;SDS011;2947;52.276;9.946;2022-09-21T05:56:32;14.13;;;6.27;;
5841;SDS011;2947;52.276;9.946;2022-09-21T05:59:35;12.53;;;7.00;;
5841;SDS011;2947;52.276;9.946;2022-09-21T06:02:43;15.90;;;6.20;;
5841;SDS011;2947;52.276;9.946;2022-09-21T06:05:34;13.77;;;7.90;;
5841;SDS011;2947;52.276;9.946;2022-09-21T06:08:00;11.13;;;6.67;;
5841;SDS011;2947;52.276;9.946;2022-09-21T06:10:27;16.60;;;7.47;;
5841;SDS011;2947;52.276;9.946;2022-09-21T06:12:58;12.27;;;7.40;;
5841;SDS011;2947;52.276;9.946;2022-09-21T06:15:24;13.90;;;6.80;;
5841;SDS011;2947;52.276;9.946;2022-09-21T06:17:50;12.73;;;6.83;;
5841;SDS011;2947;52.276;9.946;2022-09-21T06:20:16;15.83;;;6.87;;
5841;SDS011;2947;52.276;9.946;2022-09-21T06:22:42;13.67;;;7.00;;
5841;SDS011;2947;52.276;9.946;2022-09-21T06:25:07;13.07;;;6.53;;
5841;SDS011;2947;52.276;9.946;2022-09-21T06:27:33;14.90;;;6.90;;
5841;SDS011;2947;52.276;9.946;2022-09-21T06:29:59;12.37;;;6.10;;
5841;SDS011;2947;52.276;9.946;2022-09-21T06:32:25;10.47;;;6.17;;
5841;SDS011;2947;52.276;9.946;2022-09-21T06:34:50;13.53;;;6.93;;
5841;SDS011;2947;52.276;9.946;2022-09-21T06:37:16;13.57;;;6.10;;
5841;SDS011;2947;52.276;9.946;2022-09-21T06:39:42;14.10;;;6.47;;
5841;SDS011;2947;52.276;9.946;2022-09-21T06:42:07;9.60;;;5.60;;
5841;SDS011;2947;52.276;9.946;2022-09-21T06:44:33;13.23;;;5.80;;
5841;SDS011;2947;52.276;9.946;2022-09-21T06:46:59;7.10;;;4.93;;
5841;SDS011;2947;52.276;9.946;2022-09-21T06:49:24;12.07;;;5.90;;
5841;SDS011;2947;52.276;9.946;2022-09-21T06:51:52;11.40;;;6.30;;
5841;SDS011;2947;52.276;9.946;2022-09-21T06:54:19;8.60;;;5.07;;
5841;SDS011;2947;52.276;9.946;2022-09-21T06:56:45;9.30;;;6.37;;
5841;SDS011;2947;52.276;9.946;2022-09-21T06:59:11;7.23;;;5.27;;
5841;SDS011;2947;52.276;9.946;2022-09-21T07:01:37;14.33;;;6.00;;
5841;SDS011;2947;52.276;9.946;2022-09-21T07:04:03;10.37;;;5.07;;
5841;SDS011;2947;52.276;9.946;2022-09-21T07:06:28;10.17;;;5.13;;
5841;SDS011;2947;52.276;9.946;2022-09-21T07:08:54;13.40;;;5.30;;
5841;SDS011;2947;52.276;9.946;2022-09-21T07:11:20;10.97;;;5.30;;
5841;SDS011;2947;52.276;9.946;2022-09-21T07:13:48;9.20;;;5.27;;
5841;SDS011;2947;52.276;9.946;2022-09-21T07:16:14;10.47;;;5.30;;
5841;SDS011;2947;52.276;9.946;2022-09-21T07:18:40;10.53;;;6.50;;
5841;SDS011;2947;52.276;9.946;2022-09-21T07:21:07;11.43;;;5.87;;
5841;SDS011;2947;52.276;9.946;2022-09-21T07:23:34;9.90;;;6.77;;
5841;SDS011;2947;52.276;9.946;2022-09-21T07:26:01;9.77;;;5.80;;
5841;SDS011;2947;52.276;9.946;2022-09-21T07:28:33;10.03;;;5.63;;
5841;SDS011;2947;52.276;9.946;2022-09-21T07:31:12;19.10;;;6.33;;
5841;SDS011;2947;52.276;9.946;2022-09-21T07:33:40;10.43;;;6.40;;
5841;SDS011;2947;52.276;9.946;2022-09-21T07:36:07;14.67;;;6.60;;
5841;SDS011;2947;52.276;9.946;2022-09-21T07:38:41;13.33;;;6.37;;
5841;SDS011;2947;52.276;9.946;2022-09-21T07:41:08;13.17;;;7.13;;
5841;SDS011;2947;52.276;9.946;2022-09-21T07:43:36;9.77;;;6.10;;
5841;SDS011;2947;52.276;9.946;2022-09-21T07:46:05;13.37;;;7.17;;
5841;SDS011;2947;52.276;9.946;2022-09-21T07:48:32;14.47;;;6.17;;
5841;SDS011;2947;52.276;9.946;2022-09-21T07:51:04;10.43;;;6.47;;
5841;SDS011;2947;52.276;9.946;2022-09-21T07:53:34;13.90;;;7.33;;
5841;SDS011;2947;52.276;9.946;2022-09-21T07:56:12;21.97;;;7.13;;
5841;SDS011;2947;52.276;9.946;2022-09-21T07:58:40;10.37;;;6.30;;
5841;SDS011;2947;52.276;9.946;2022-09-21T08:01:25;10.07;;;6.60;;
5841;SDS011;2947;52.276;9.946;2022-09-21T08:03:53;15.83;;;6.50;;
5841;SDS011;2947;52.276;9.946;2022-09-21T08:06:22;9.70;;;6.10;;
5841;SDS011;2947;52.276;9.946;2022-09-21T08:08:50;11.37;;;5.10;;
5841;SDS011;2947;52.276;9.946;2022-09-21T08:11:16;14.37;;;6.17;;
5841;SDS011;2947;52.276;9.946;2022-09-21T08:13:46;16.27;;;5.60;;
5841;SDS011;2947;52.276;9.946;2022-09-21T08:16:12;13.70;;;5.97;;
5841;SDS011;2947;52.276;9.946;2022-09-21T08:18:39;19.13;;;6.13;;
5841;SDS011;2947;52.276;9.946;2022-09-21T08:21:06;16.93;;;5.63;;
5841;SDS011;2947;52.276;9.946;2022-09-21T08:23:33;9.87;;;6.10;;
5841;SDS011;2947;52.276;9.946;2022-09-21T08:26:05;10.47;;;6.17;;
5841;SDS011;2947;52.276;9.946;2022-09-21T08:28:31;12.07;;;5.83;;
5841;SDS011;2947;52.276;9.946;2022-09-21T08:31:00;18.20;;;5.90;;
5841;SDS011;2947;52.276;9.946;2022-09-21T08:33:28;15.10;;;6.83;;
5841;SDS011;2947;52.276;9.946;2022-09-21T08:35:55;17.10;;;6.60;;
5841;SDS011;2947;52.276;9.946;2022-09-21T08:38:24;14.60;;;6.00;;
5841;SDS011;2947;52.276;9.946;2022-09-21T08:40:50;16.03;;;6.07;;
5841;SDS011;2947;52.276;9.946;2022-09-21T08:43:29;8.37;;;4.30;;
5841;SDS011;2947;52.276;9.946;2022-09-21T08:46:04;6.27;;;3.67;;
5841;SDS011;2947;52.276;9.946;2022-09-21T08:48:37;14.27;;;3.93;;
5841;SDS011;2947;52.276;9.946;2022-09-21T08:51:10;10.67;;;4.30;;
5841;SDS011;2947;52.276;9.946;2022-09-21T08:53:45;21.00;;;4.57;;
5841;SDS011;2947;52.276;9.946;2022-09-21T08:56:16;5.83;;;3.13;;
5841;SDS011;2947;52.276;9.946;2022-09-21T08:58:42;7.20;;;3.37;;
5841;SDS011;2947;52.276;9.946;2022-09-21T09:07:32;9.52;;;2.65;;
5841;SDS011;2947;52.276;9.946;2022-09-21T09:10:13;8.75;;;3.00;;
5841;SDS011;2947;52.276;9.946;2022-09-21T09:12:57;7.53;;;3.00;;
5841;SDS011;2947;52.276;9.946;2022-09-21T09:15:51;7.10;;;2.67;;
5841;SDS011;2947;52.276;9.946;2022-09-21T09:21:24;6.25;;;2.30;;
5841;SDS011;2947;52.276;9.946;2022-09-21T09:24:11;6.35;;;2.42;;
5841;SDS011;2947;52.276;9.946;2022-09-21T09:26:45;4.28;;;1.77;;
5841;SDS011;2947;52.276;9.946;2022-09-21T09:32:16;6.40;;;2.28;;
5841;SDS011;2947;52.276;9.946;2022-09-21T09:34:44;6.63;;;2.00;;
5841;SDS011;2947;52.276;9.946;2022-09-21T09:37:32;10.18;;;2.08;;
5841;SDS011;2947;52.276;9.946;2022-09-21T09:40:04;4.05;;;1.60;;
5841;SDS011;2947;52.276;9.946;2022-09-21T09:42:38;4.55;;;1.33;;
5841;SDS011;2947;52.276;9.946;2022-09-21T09:48:21;8.82;;;1.17;;
5841;SDS011;2947;52.276;9.946;2022-09-21T09:51:06;6.85;;;2.10;;
5841;SDS011;2947;52.276;9.946;2022-09-21T09:53:37;6.35;;;1.50;;
5841;SDS011;2947;52.276;9.946;2022-09-21T09:56:03;5.60;;;2.00;;
5841;SDS011;2947;52.276;9.946;2022-09-21T09:58:34;10.52;;;1.88;;
5841;SDS011;2947;52.276;9.946;2022-09-21T10:01:04;3.15;;;1.13;;
5841;SDS011;2947;52.276;9.946;2022-09-21T10:03:30;9.05;;;1.63;;
5841;SDS011;2947;52.276;9.946;2022-09-21T10:08:42;4.82;;;1.35;;
5841;SDS011;2947;52.276;9.946;2022-09-21T10:11:13;5.65;;;1.27;;
5841;SDS011;2947;52.276;9.946;2022-09-21T10:13:41;5.05;;;1.58;;
5841;SDS011;2947;52.276;9.946;2022-09-21T10:16:20;6.55;;;1.55;;
5841;SDS011;2947;52.276;9.946;2022-09-21T10:18:54;6.03;;;1.20;;
5841;SDS011;2947;52.276;9.946;2022-09-21T10:21:34;12.38;;;2.88;;
5841;SDS011;2947;52.276;9.946;2022-09-21T10:24:23;4.32;;;1.00;;
5841;SDS011;2947;52.276;9.946;2022-09-21T10:27:14;8.80;;;1.88;;
5841;SDS011;2947;52.276;9.946;2022-09-21T10:29:52;8.75;;;1.60;;
5841;SDS011;2947;52.276;9.946;2022-09-21T10:32:19;7.47;;;1.95;;
5841;SDS011;2947;52.276;9.946;2022-09-21T10:37:39;3.45;;;1.17;;
5841;SDS011;2947;52.276;9.946;2022-09-21T10:42:44;3.95;;;1.10;;
5841;SDS011;2947;52.276;9.946;2022-09-21T10:45:16;11.82;;;1.65;;
5841;SDS011;2947;52.276;9.946;2022-09-21T10:47:51;7.68;;;1.40;;
5841;SDS011;2947;52.276;9.946;2022-09-21T10:50:36;9.05;;;1.10;;
5841;SDS011;2947;52.276;9.946;2022-09-21T10:55:52;6.15;;;1.75;;
5841;SDS011;2947;52.276;9.946;2022-09-21T10:58:25;8.40;;;1.15;;
5841;SDS011;2947;52.276;9.946;2022-09-21T11:00:52;7.68;;;1.33;;
5841;SDS011;2947;52.276;9.946;2022-09-21T11:05:55;8.40;;;1.48;;
5841;SDS011;2947;52.276;9.946;2022-09-21T11:08:37;8.55;;;1.50;;
5841;SDS011;2947;52.276;9.946;2022-09-21T11:14:23;6.32;;;1.30;;
5841;SDS011;2947;52.276;9.946;2022-09-21T11:17:08;5.60;;;1.55;;
5841;SDS011;2947;52.276;9.946;2022-09-21T11:20:03;5.45;;;0.93;;
5841;SDS011;2947;52.276;9.946;2022-09-21T11:22:44;5.53;;;1.48;;
5841;SDS011;2947;52.276;9.946;2022-09-21T11:28:41;5.43;;;1.50;;
5841;SDS011;2947;52.276;9.946;2022-09-21T11:31:34;4.03;;;1.45;;
5841;SDS011;2947;52.276;9.946;2022-09-21T11:55:36;4.53;;;0.93;;
5841;SDS011;2947;52.276;9.946;2022-09-21T11:58:30;8.88;;;1.40;;
5841;SDS011;2947;52.276;9.946;2022-09-21T12:10:49;2.92;;;0.98;;
5841;SDS011;2947;52.276;9.946;2022-09-21T12:17:01;4.90;;;1.00;;
5841;SDS011;2947;52.276;9.946;2022-09-21T12:22:15;2.72;;;1.00;;
5841;SDS011;2947;52.276;9.946;2022-09-21T12:24:51;5.05;;;0.90;;
5841;SDS011;2947;52.276;9.946;2022-09-21T12:27:47;6.45;;;1.20;;
5841;SDS011;2947;52.276;9.946;2022-09-21T12:30:19;5.45;;;0.98;;
5841;SDS011;2947;52.276;9.946;2022-09-21T12:35:16;3.17;;;1.17;;
5841;SDS011;2947;52.276;9.946;2022-09-21T12:37:58;6.57;;;0.90;;
5841;SDS011;2947;52.276;9.946;2022-09-21T12:41:03;8.10;;;1.20;;
5841;SDS011;2947;52.276;9.946;2022-09-21T12:46:39;3.13;;;0.93;;
5841;SDS011;2947;52.276;9.946;2022-09-21T12:49:21;4.40;;;1.55;;
5841;SDS011;2947;52.276;9.946;2022-09-21T12:51:54;5.10;;;0.80;;
5841;SDS011;2947;52.276;9.946;2022-09-21T12:54:27;3.63;;;0.52;;
5841;SDS011;2947;52.276;9.946;2022-09-21T13:00:13;9.18;;;3.90;;
5841;SDS011;2947;52.276;9.946;2022-09-21T13:05:22;2.40;;;0.90;;
5841;SDS011;2947;52.276;9.946;2022-09-21T13:08:31;5.32;;;1.17;;
5841;SDS011;2947;52.276;9.946;2022-09-21T13:11:01;3.28;;;0.82;;
5841;SDS011;2947;52.276;9.946;2022-09-21T13:13:31;3.97;;;1.08;;
5841;SDS011;2947;52.276;9.946;2022-09-21T13:16:04;6.10;;;1.50;;
5841;SDS011;2947;52.276;9.946;2022-09-21T13:18:32;2.22;;;0.70;;
5841;SDS011;2947;52.276;9.946;2022-09-21T13:21:13;3.95;;;0.90;;
5841;SDS011;2947;52.276;9.946;2022-09-21T13:23:59;7.20;;;0.90;;
5841;SDS011;2947;52.276;9.946;2022-09-21T13:26:29;4.53;;;1.25;;
5841;SDS011;2947;52.276;9.946;2022-09-21T13:31:58;6.22;;;1.08;;
5841;SDS011;2947;52.276;9.946;2022-09-21T13:44:56;1.40;;;0.63;;
5841;SDS011;2947;52.276;9.946;2022-09-21T13:47:51;5.95;;;1.00;;
5841;SDS011;2947;52.276;9.946;2022-09-21T13:50:26;2.50;;;0.77;;
5841;SDS011;2947;52.276;9.946;2022-09-21T13:53:13;2.60;;;0.88;;
5841;SDS011;2947;52.276;9.946;2022-09-21T13:56:04;9.85;;;1.20;;
5841;SDS011;2947;52.276;9.946;2022-09-21T13:58:44;5.35;;;1.23;;
5841;SDS011;2947;52.276;9.946;2022-09-21T14:01:17;9.52;;;0.93;;
5841;SDS011;2947;52.276;9.946;2022-09-21T14:03:49;10.52;;;1.20;;
5841;SDS011;2947;52.276;9.946;2022-09-21T14:06:21;3.60;;;0.90;;
5841;SDS011;2947;52.276;9.946;2022-09-21T14:08:59;3.05;;;0.77;;
5841;SDS011;2947;52.276;9.946;2022-09-21T14:11:40;9.55;;;1.25;;
5841;SDS011;2947;52.276;9.946;2022-09-21T14:16:52;3.20;;;1.00;;
5841;SDS011;2947;52.276;9.946;2022-09-21T14:24:38;5.72;;;1.35;;
5841;SDS011;2947;52.276;9.946;2022-09-21T14:29:53;4.07;;;1.10;;
5841;SDS011;2947;52.276;9.946;2022-09-21T14:32:29;5.40;;;1.55;;
5841;SDS011;2947;52.276;9.946;2022-09-21T14:35:10;5.72;;;1.00;;
5841;SDS011;2947;52.276;9.946;2022-09-21T14:37:46;5.15;;;1.00;;
5841;SDS011;2947;52.276;9.946;2022-09-21T14:40:17;3.78;;;1.00;;
5841;SDS011;2947;52.276;9.946;2022-09-21T14:42:51;4.22;;;1.20;;
5841;SDS011;2947;52.276;9.946;2022-09-21T14:45:19;7.78;;;1.15;;
5841;SDS011;2947;52.276;9.946;2022-09-21T14:51:38;8.02;;;1.08;;
5841;SDS011;2947;52.276;9.946;2022-09-21T14:57:54;6.72;;;1.40;;
5841;SDS011;2947;52.276;9.946;2022-09-21T15:01:14;4.05;;;0.98;;
5841;SDS011;2947;52.276;9.946;2022-09-21T15:03:56;5.60;;;1.35;;
5841;SDS011;2947;52.276;9.946;2022-09-21T15:06:32;3.72;;;0.70;;
5841;SDS011;2947;52.276;9.946;2022-09-21T15:09:36;4.75;;;1.50;;
5841;SDS011;2947;52.276;9.946;2022-09-21T15:12:36;6.60;;;1.23;;
5841;SDS011;2947;52.276;9.946;2022-09-21T15:18:31;6.32;;;1.10;;
5841;SDS011;2947;52.276;9.946;2022-09-21T15:21:03;3.83;;;1.00;;
5841;SDS011;2947;52.276;9.946;2022-09-21T15:23:33;2.95;;;1.40;;
5841;SDS011;2947;52.276;9.946;2022-09-21T15:26:04;5.05;;;1.15;;
5841;SDS011;2947;52.276;9.946;2022-09-21T15:28:40;3.35;;;0.82;;
5841;SDS011;2947;52.276;9.946;2022-09-21T15:31:14;3.00;;;1.02;;
5841;SDS011;2947;52.276;9.946;2022-09-21T15:33:41;5.20;;;0.98;;
5841;SDS011;2947;52.276;9.946;2022-09-21T15:36:10;3.70;;;1.08;;
5841;SDS011;2947;52.276;9.946;2022-09-21T15:38:46;5.10;;;1.85;;
5841;SDS011;2947;52.276;9.946;2022-09-21T15:41:17;3.33;;;0.93;;
5841;SDS011;2947;52.276;9.946;2022-09-21T15:44:05;4.32;;;1.02;;
5841;SDS011;2947;52.276;9.946;2022-09-21T15:46:40;3.47;;;0.98;;
5841;SDS011;2947;52.276;9.946;2022-09-21T15:49:16;7.38;;;1.23;;
5841;SDS011;2947;52.276;9.946;2022-09-21T15:51:51;4.60;;;1.38;;
5841;SDS011;2947;52.276;9.946;2022-09-21T15:54:24;5.28;;;1.00;;
5841;SDS011;2947;52.276;9.946;2022-09-21T16:00:01;4.20;;;0.90;;
5841;SDS011;2947;52.276;9.946;2022-09-21T16:03:05;2.60;;;1.08;;
5841;SDS011;2947;52.276;9.946;2022-09-21T16:05:44;1.88;;;0.88;;
5841;SDS011;2947;52.276;9.946;2022-09-21T16:08:21;7.25;;;2.22;;
5841;SDS011;2947;52.276;9.946;2022-09-21T16:11:09;6.53;;;1.17;;
5841;SDS011;2947;52.276;9.946;2022-09-21T16:13:40;4.60;;;1.08;;
5841;SDS011;2947;52.276;9.946;2022-09-21T16:16:26;4.72;;;0.90;;
5841;SDS011;2947;52.276;9.946;2022-09-21T16:18:55;9.15;;;2.08;;
5841;SDS011;2947;52.276;9.946;2022-09-21T16:21:31;4.57;;;0.93;;
5841;SDS011;2947;52.276;9.946;2022-09-21T16:26:54;5.30;;;1.00;;
5841;SDS011;2947;52.276;9.946;2022-09-21T16:29:23;7.32;;;1.02;;
5841;SDS011;2947;52.276;9.946;2022-09-21T16:32:18;4.70;;;0.93;;
5841;SDS011;2947;52.276;9.946;2022-09-21T16:34:51;5.43;;;0.93;;
5841;SDS011;2947;52.276;9.946;2022-09-21T16:39:44;3.83;;;1.20;;
5841;SDS011;2947;52.276;9.946;2022-09-21T16:42:10;3.35;;;1.05;;
5841;SDS011;2947;52.276;9.946;2022-09-21T16:44:37;4.15;;;1.17;;
5841;SDS011;2947;52.276;9.946;2022-09-21T16:47:12;6.72;;;2.38;;
5841;SDS011;2947;52.276;9.946;2022-09-21T16:49:41;4.28;;;1.20;;
5841;SDS011;2947;52.276;9.946;2022-09-21T16:52:07;4.38;;;1.40;;
5841;SDS011;2947;52.276;9.946;2022-09-21T16:54:33;3.95;;;0.77;;
5841;SDS011;2947;52.276;9.946;2022-09-21T16:57:02;3.17;;;0.90;;
5841;SDS011;2947;52.276;9.946;2022-09-21T16:59:30;3.83;;;1.05;;
5841;SDS011;2947;52.276;9.946;2022-09-21T17:01:59;2.75;;;0.77;;
5841;SDS011;2947;52.276;9.946;2022-09-21T17:04:28;4.40;;;0.93;;
5841;SDS011;2947;52.276;9.946;2022-09-21T17:06:56;7.95;;;1.40;;
5841;SDS011;2947;52.276;9.946;2022-09-21T17:12:03;12.60;;;1.38;;
5841;SDS011;2947;52.276;9.946;2022-09-21T17:14:32;5.28;;;1.05;;
5841;SDS011;2947;52.276;9.946;2022-09-21T17:17:01;5.53;;;1.30;;
5841;SDS011;2947;52.276;9.946;2022-09-21T17:19:43;7.50;;;1.73;;
5841;SDS011;2947;52.276;9.946;2022-09-21T17:22:10;6.28;;;1.20;;
5841;SDS011;2947;52.276;9.946;2022-09-21T17:24:41;11.35;;;1.48;;
5841;SDS011;2947;52.276;9.946;2022-09-21T17:27:09;5.70;;;1.23;;
5841;SDS011;2947;52.276;9.946;2022-09-21T17:29:37;6.60;;;1.50;;
5841;SDS011;2947;52.276;9.946;2022-09-21T17:32:10;9.70;;;1.13;;
5841;SDS011;2947;52.276;9.946;2022-09-21T17:34:38;4.00;;;1.30;;
5841;SDS011;2947;52.276;9.946;2022-09-21T17:37:05;4.47;;;1.23;;
5841;SDS011;2947;52.276;9.946;2022-09-21T17:39:31;3.58;;;0.90;;
5841;SDS011;2947;52.276;9.946;2022-09-21T17:42:00;5.05;;;1.10;;
5841;SDS011;2947;52.276;9.946;2022-09-21T17:47:44;4.85;;;1.33;;
5841;SDS011;2947;52.276;9.946;2022-09-21T17:50:14;5.65;;;1.50;;
5841;SDS011;2947;52.276;9.946;2022-09-21T17:52:50;3.90;;;1.15;;
5841;SDS011;2947;52.276;9.946;2022-09-21T17:55:36;10.73;;;1.40;;
5841;SDS011;2947;52.276;9.946;2022-09-21T18:01:04;4.97;;;1.30;;
5841;SDS011;2947;52.276;9.946;2022-09-21T18:03:32;6.15;;;1.52;;
5841;SDS011;2947;52.276;9.946;2022-09-21T18:06:05;8.90;;;1.10;;
5841;SDS011;2947;52.276;9.946;2022-09-21T18:08:32;4.95;;;1.33;;
5841;SDS011;2947;52.276;9.946;2022-09-21T18:20:32;6.82;;;1.58;;
5841;SDS011;2947;52.276;9.946;2022-09-21T18:26:22;4.75;;;1.75;;
5841;SDS011;2947;52.276;9.946;2022-09-21T18:28:49;6.40;;;1.55;;
5841;SDS011;2947;52.276;9.946;2022-09-21T18:46:01;5.95;;;1.00;;
5841;SDS011;2947;52.276;9.946;2022-09-21T18:48:49;4.50;;;1.00;;
5841;SDS011;2947;52.276;9.946;2022-09-21T18:51:43;7.00;;;1.30;;
5841;SDS011;2947;52.276;9.946;2022-09-21T18:54:25;3.60;;;0.98;;
5841;SDS011;2947;52.276;9.946;2022-09-21T18:56:51;4.40;;;1.35;;
5841;SDS011;2947;52.276;9.946;2022-09-21T18:59:17;5.65;;;1.42;;
5841;SDS011;2947;52.276;9.946;2022-09-21T19:01:44;4.70;;;1.63;;
5841;SDS011;2947;52.276;9.946;2022-09-21T19:04:12;2.78;;;1.20;;
5841;SDS011;2947;52.276;9.946;2022-09-21T19:06:53;2.17;;;1.10;;